Time;durP1;ratioP1;P1;durP2;ratioP2;P2;SDS_P1;SDS_P2;PMS_P1;PMS_P2;Temp;Humidity;BMP_temperature;BMP_pressure;BME280_temperature;BME280_humidity;BME280_pressure;Samples;Min_cycle;Max_cycle;Signal;HPM_P1;HPM_P2
2022/09/01 00:01:38;;;;;;;13.65;8.57;;;;;;;11.73;91.94;94094.75;5009090;28;20056;-66
2022/09/01 00:04:05;;;;;;;14.70;9.53;;;;;;;11.75;93.09;94095.91;5009832;28;20038;-66
2022/09/01 00:06:32;;;;;;;13.40;8.88;;;;;;;11.72;93.63;94095.97;5009261;28;20050;-63
2022/09/01 00:09:03;;;;;;;15.02;9.10;;;;;;;11.79;93.65;94090.31;5009487;28;20045;-66
2022/09/01 00:11:31;;;;;;;18.75;10.07;;;;;;;10.71;98.35;94094.69;5008742;28;20064;-66
2022/09/01 00:14:00;;;;;;;15.95;9.90;;;;;;;10.90;99.46;94095.22;5009610;28;20042;-70
2022/09/01 00:16:29;;;;;;;16.07;9.77;;;;;;;11.20;97.37;94094.41;5013297;28;20041;-71
2022/09/01 00:18:57;;;;;;;13.07;8.90;;;;;;;11.38;96.35;94088.66;5012930;28;21347;-67
2022/09/01 00:21:29;;;;;;;12.43;8.63;;;;;;;11.48;95.74;94087.69;5013397;28;20049;-67
2022/09/01 00:23:56;;;;;;;13.23;8.85;;;;;;;11.53;95.72;94090.00;5012684;28;20302;-68
2022/09/01 00:26:23;;;;;;;14.75;9.65;;;;;;;11.59;95.49;94088.31;5013478;28;20369;-66
2022/09/01 00:28:50;;;;;;;15.60;9.03;;;;;;;11.55;94.50;94082.09;5013151;28;20056;-66
2022/09/01 00:31:20;;;;;;;13.50;8.73;;;;;;;11.56;94.66;94088.38;5013132;28;20040;-66
2022/09/01 00:33:48;;;;;;;12.35;8.32;;;;;;;11.59;94.34;94085.56;5012875;28;20046;-69
2022/09/01 00:36:16;;;;;;;14.30;9.02;;;;;;;11.63;94.48;94084.72;5012845;28;20684;-66
2022/09/01 00:38:44;;;;;;;14.23;9.48;;;;;;;11.65;94.43;94083.13;5012395;28;20414;-67
2022/09/01 00:41:11;;;;;;;12.83;8.73;;;;;;;11.61;94.03;94082.41;5012638;28;20038;-66
2022/09/01 00:43:45;;;;;;;12.23;8.50;;;;;;;11.63;94.18;94076.47;5012564;28;20379;-67
2022/09/01 00:46:15;;;;;;;13.27;8.20;;;;;;;11.66;94.07;94067.41;5012789;28;20050;-67
2022/09/01 00:48:51;;;;;;;13.82;8.20;;;;;;;11.65;92.69;94071.31;5012733;28;20384;-71
2022/09/01 00:51:18;;;;;;;12.98;7.78;;;;;;;11.52;92.85;94069.19;5012888;28;20410;-69
2022/09/01 00:53:46;;;;;;;10.97;7.53;;;;;;;11.55;92.70;94062.06;5012414;28;20054;-67
2022/09/01 00:56:13;;;;;;;12.07;7.50;;;;;;;11.56;92.43;94063.63;5012536;28;20052;-67
2022/09/01 00:58:41;;;;;;;11.70;8.23;;;;;;;11.56;92.61;94063.63;5011247;28;20064;-68
2022/09/01 01:01:09;;;;;;;13.98;9.00;;;;;;;11.49;92.71;94059.03;5012762;28;20092;-65
2022/09/01 01:03:41;;;;;;;12.88;8.80;;;;;;;11.48;92.93;94065.72;5012355;28;20088;-71
2022/09/01 01:06:09;;;;;;;12.53;8.43;;;;;;;11.47;92.98;94058.69;5012757;28;20046;-66
2022/09/01 01:08:40;;;;;;;12.43;8.40;;;;;;;11.42;93.37;94069.38;5012019;28;20044;-68
2022/09/01 01:11:16;;;;;;;12.77;8.75;;;;;;;11.31;94.04;94070.31;5012715;28;20410;-70
2022/09/01 01:13:56;;;;;;;15.40;9.20;;;;;;;11.38;93.96;94059.19;5012189;28;20049;-68
2022/09/01 01:16:25;;;;;;;14.30;8.77;;;;;;;11.36;94.47;94058.84;5012337;28;20403;-70
2022/09/01 01:18:52;;;;;;;14.93;8.93;;;;;;;11.39;93.97;94055.25;5012204;28;20117;-67
2022/09/01 01:24:33;;;;;;;12.52;8.40;;;;;;;11.47;93.68;94061.44;5011133;28;20614;-66
2022/09/01 01:26:59;;;;;;;13.65;8.75;;;;;;;11.42;93.72;94059.13;5010401;28;20300;-66
2022/09/01 01:29:31;;;;;;;13.50;9.10;;;;;;;11.46;93.75;94059.84;5011868;28;20064;-70
2022/09/01 01:31:59;;;;;;;14.07;9.13;;;;;;;11.43;94.22;94062.66;4998435;28;20326;-71
2022/09/01 01:34:26;;;;;;;13.35;9.23;;;;;;;11.38;94.14;94055.66;5011770;28;20060;-66
2022/09/01 01:36:54;;;;;;;13.15;8.70;;;;;;;11.43;93.72;94060.72;5011787;28;20052;-67
2022/09/01 01:39:26;;;;;;;333.77;232.77;;;;;;;11.44;93.82;94065.00;5011848;28;20072;-69
2022/09/01 01:41:54;;;;;;;25.80;15.55;;;;;;;11.28;93.32;94062.13;5011705;28;20046;-70
2022/09/01 01:44:26;;;;;;;11.03;7.63;;;;;;;11.07;93.44;94071.47;5011850;28;20064;-66
2022/09/01 01:46:56;;;;;;;13.32;8.32;;;;;;;10.91;94.72;94072.09;5011306;28;20826;-65
2022/09/01 01:49:26;;;;;;;13.30;8.35;;;;;;;11.02;94.61;94071.94;5011388;28;20087;-65
2022/09/01 01:51:54;;;;;;;13.77;8.63;;;;;;;11.05;94.35;94073.84;5009940;28;20491;-72
2022/09/01 01:54:23;;;;;;;12.55;8.82;;;;;;;11.10;94.88;94071.41;5012542;28;20068;-70
2022/09/01 01:56:50;;;;;;;14.03;9.10;;;;;;;11.12;95.29;94077.25;5011750;28;20048;-70
2022/09/01 01:59:18;;;;;;;13.48;9.00;;;;;;;11.12;95.00;94077.25;5011442;28;20042;-66
2022/09/01 02:01:48;;;;;;;14.38;9.23;;;;;;;11.14;95.36;94079.59;5011098;28;20060;-66
2022/09/01 02:04:15;;;;;;;13.25;9.10;;;;;;;11.22;95.24;94085.75;5011444;28;20410;-67
2022/09/01 02:06:44;;;;;;;14.73;10.15;;;;;;;10.77;98.00;94087.56;5011270;28;20049;-66
2022/09/01 02:09:13;;;;;;;15.40;9.67;;;;;;;10.81;98.56;94084.75;5011711;28;20402;-69
2022/09/01 02:11:42;;;;;;;14.82;10.10;;;;;;;11.08;97.07;94087.50;5010977;28;20054;-67
2022/09/01 02:14:11;;;;;;;16.02;9.48;;;;;;;10.93;97.57;94086.94;5011361;28;20042;-72
2022/09/01 02:16:38;;;;;;;15.23;9.70;;;;;;;11.22;96.44;94086.53;5010744;28;20392;-67
2022/09/01 02:19:08;;;;;;;16.13;9.18;;;;;;;10.93;97.13;94086.94;5011270;28;20438;-69
2022/09/01 02:21:35;;;;;;;18.50;10.83;;;;;;;11.22;96.94;94081.03;5010612;28;20057;-66
2022/09/01 02:24:07;;;;;;;16.58;10.32;;;;;;;11.44;96.42;94081.47;5011302;28;20041;-71
2022/09/01 02:26:38;;;;;;;16.98;9.80;;;;;;;11.40;95.64;94086.25;5010815;28;20056;-73
2022/09/01 02:29:16;;;;;;;17.52;11.07;;;;;;;11.47;96.57;94082.63;5011030;28;20517;-67
2022/09/01 02:31:45;;;;;;;26.45;13.73;;;;;;;11.73;96.12;94075.50;5010972;28;20657;-66
2022/09/01 02:34:12;;;;;;;25.63;16.07;;;;;;;11.82;96.95;94073.00;5011001;28;20041;-66
2022/09/01 02:36:46;;;;;;;23.83;14.88;;;;;;;12.10;96.49;94077.25;5010409;28;20053;-67
2022/09/01 02:39:22;;;;;;;26.42;15.50;;;;;;;12.26;96.17;94073.03;5010861;28;20054;-70
2022/09/01 02:41:49;;;;;;;26.20;15.90;;;;;;;12.43;95.41;94071.13;5010349;28;20038;-66
2022/09/01 02:44:18;;;;;;;24.92;15.00;;;;;;;12.39;94.16;94069.22;5009937;28;20058;-76
2022/09/01 02:46:45;;;;;;;27.00;15.73;;;;;;;12.48;94.49;94071.41;5010067;28;20107;-65
2022/09/01 02:49:18;;;;;;;31.70;16.90;;;;;;;12.30;96.28;94069.00;5010784;28;20038;-65
2022/09/01 02:51:49;;;;;;;33.42;17.50;;;;;;;12.29;96.19;94064.69;5010432;28;20075;-65
2022/09/01 02:54:17;;;;;;;28.50;15.80;;;;;;;12.62;94.99;94070.34;5010807;28;20419;-72
2022/09/01 02:56:46;;;;;;;27.83;14.73;;;;;;;12.81;94.15;94073.50;5010497;28;20075;-69
2022/09/01 02:59:14;;;;;;;28.00;16.13;;;;;;;12.78;93.99;94072.38;5010759;28;20453;-67
2022/09/01 03:01:43;;;;;;;28.60;15.77;;;;;;;12.89;93.96;94069.38;5009899;28;20053;-71
2022/09/01 03:04:11;;;;;;;28.08;14.95;;;;;;;12.94;93.33;94066.13;5004727;28;20108;-67
2022/09/01 03:06:39;;;;;;;26.20;15.02;;;;;;;12.94;92.74;94066.13;5010426;28;20372;-65
2022/09/01 03:09:11;;;;;;;25.83;14.13;;;;;;;13.04;92.28;94059.63;5010674;28;20288;-70
2022/09/01 03:11:39;;;;;;;27.53;15.23;;;;;;;12.86;92.95;94062.75;5008421;28;20038;-66
2022/09/01 03:14:07;;;;;;;24.17;14.10;;;;;;;13.06;92.58;94070.19;5010300;28;20684;-66
2022/09/01 03:16:36;;;;;;;24.88;14.40;;;;;;;13.08;92.19;94060.31;5008295;28;20391;-67
2022/09/01 03:19:07;;;;;;;24.83;13.60;;;;;;;13.10;92.41;94054.34;4992197;28;20053;-73
2022/09/01 03:21:38;;;;;;;23.70;13.45;;;;;;;13.19;91.82;94055.31;4991100;28;20045;-68
2022/09/01 03:24:15;;;;;;;23.93;14.00;;;;;;;13.06;92.23;94054.44;5010056;28;20103;-66
2022/09/01 03:26:45;;;;;;;24.40;13.98;;;;;;;13.12;92.43;94051.94;5023603;28;20042;-66
2022/09/01 03:29:16;;;;;;;24.33;12.98;;;;;;;13.30;91.11;94048.81;5008719;28;20038;-67
2022/09/01 03:31:43;;;;;;;20.05;11.90;;;;;;;13.31;90.71;94053.13;5009602;28;20167;-72
2022/09/01 03:34:10;;;;;;;20.75;13.07;;;;;;;13.18;91.08;94055.75;5010077;28;20044;-69
2022/09/01 03:36:37;;;;;;;20.43;11.53;;;;;;;13.32;90.01;94049.16;5009318;28;20054;-66
2022/09/01 03:39:06;;;;;;;20.40;12.23;;;;;;;13.34;89.26;94061.31;5010007;28;20034;-67
2022/09/01 03:41:32;;;;;;;18.50;11.25;;;;;;;13.36;89.00;94053.38;5007858;28;20048;-71
2022/09/01 03:43:59;;;;;;;19.02;10.98;;;;;;;13.36;89.44;94058.09;5009748;28;20395;-66
2022/09/01 03:46:29;;;;;;;17.83;10.77;;;;;;;13.36;88.68;94058.09;5009402;28;20042;-66
2022/09/01 03:49:05;;;;;;;15.57;10.13;;;;;;;13.48;88.51;94048.38;5008618;28;20050;-67
2022/09/01 03:51:32;;;;;;;16.45;10.43;;;;;;;13.38;88.48;94048.22;5009184;28;20053;-67
2022/09/01 03:53:59;;;;;;;15.88;9.55;;;;;;;13.40;88.51;94058.81;5009799;28;20451;-67
2022/09/01 03:56:28;;;;;;;16.85;10.00;;;;;;;13.44;88.28;94044.94;5009497;28;20567;-69
2022/09/01 03:58:56;;;;;;;17.10;11.15;;;;;;;13.17;88.93;94045.94;5009479;28;20096;-67
2022/09/01 04:01:25;;;;;;;16.27;10.00;;;;;;;13.36;88.17;94056.16;5009175;28;20436;-66
2022/09/01 04:03:52;;;;;;;17.88;10.38;;;;;;;13.39;87.73;94049.00;5007618;28;20052;-67
2022/09/01 04:06:22;;;;;;;15.75;9.70;;;;;;;13.41;88.34;94049.34;5010158;28;20045;-67
2022/09/01 04:08:55;;;;;;;16.45;10.50;;;;;;;13.32;88.75;94051.91;5009375;28;20057;-67
2022/09/01 04:11:22;;;;;;;16.60;10.02;;;;;;;13.36;88.49;94052.59;5009517;28;20438;-67
2022/09/01 04:13:51;;;;;;;17.43;10.20;;;;;;;13.48;87.89;94048.38;5009089;28;20060;-66
2022/09/01 04:19:18;;;;;;;17.40;10.80;;;;;;;13.50;87.25;94044.00;5008606;28;20403;-66
2022/09/01 04:21:49;;;;;;;15.50;10.02;;;;;;;13.61;87.06;94046.50;5008739;28;20056;-67
2022/09/01 04:24:17;;;;;;;19.38;10.82;;;;;;;13.58;87.11;94050.09;5009344;28;20064;-69
2022/09/01 04:26:48;;;;;;;18.07;10.20;;;;;;;13.62;86.79;94055.53;5008714;28;20045;-69
2022/09/01 04:29:25;;;;;;;18.10;10.38;;;;;;;13.47;87.91;94044.84;5009283;28;20445;-67
2022/09/01 04:31:55;;;;;;;16.77;10.55;;;;;;;13.56;87.83;94049.75;5009116;28;20441;-66
2022/09/01 04:34:23;;;;;;;17.67;10.00;;;;;;;13.53;87.41;94051.41;5009111;28;20440;-75
2022/09/01 04:36:53;;;;;;;17.35;10.85;;;;;;;13.33;88.73;94050.72;5008578;28;20041;-67
2022/09/01 04:39:21;;;;;;;17.27;10.33;;;;;;;13.44;87.92;94045.72;5009584;28;20046;-66
2022/09/01 04:41:49;;;;;;;16.88;10.63;;;;;;;13.50;88.13;94046.75;5008415;28;20064;-66
2022/09/01 04:44:17;;;;;;;17.58;10.88;;;;;;;13.47;87.96;94052.34;5009063;28;20046;-66
2022/09/01 04:46:47;;;;;;;17.65;10.82;;;;;;;13.44;88.76;94056.75;5008210;28;20037;-66
2022/09/01 04:49:18;;;;;;;18.08;10.85;;;;;;;13.58;87.80;94053.66;5009223;28;20045;-66
2022/09/01 04:51:48;;;;;;;18.50;11.33;;;;;;;13.53;88.23;94056.16;5008234;28;20096;-66
2022/09/01 04:54:20;;;;;;;18.65;11.10;;;;;;;13.68;87.30;94068.38;5009209;28;20084;-66
2022/09/01 04:56:49;;;;;;;17.67;10.93;;;;;;;13.80;86.65;94055.84;5008276;28;20495;-74
2022/09/01 04:59:19;;;;;;;19.08;11.23;;;;;;;13.81;87.00;94056.66;5009121;28;20042;-66
2022/09/01 05:01:49;;;;;;;16.92;10.85;;;;;;;13.78;86.84;94048.03;5010633;28;20085;-64
2022/09/01 05:04:19;;;;;;;19.43;10.90;;;;;;;13.56;87.66;94058.03;5012873;28;20046;-64
2022/09/01 05:06:49;;;;;;;17.10;10.45;;;;;;;13.78;86.78;94048.03;5011858;28;20050;-69
2022/09/01 05:09:17;;;;;;;19.15;10.60;;;;;;;13.72;88.00;94051.72;5012471;28;20081;-65
2022/09/01 05:11:47;;;;;;;16.80;9.93;;;;;;;13.77;86.84;94040.19;5011910;28;20049;-66
2022/09/01 05:14:17;;;;;;;17.38;10.10;;;;;;;13.67;86.51;94047.50;5012130;28;20042;-65
2022/09/01 05:16:45;;;;;;;15.63;10.13;;;;;;;13.72;86.25;94051.72;5010436;28;20348;-65
2022/09/01 05:19:16;;;;;;;16.30;9.60;;;;;;;13.79;85.61;94055.09;5012006;28;20446;-67
2022/09/01 05:21:46;;;;;;;16.15;8.98;;;;;;;13.89;85.54;94050.50;5011411;28;20061;-66
2022/09/01 05:24:16;;;;;;;17.08;9.10;;;;;;;13.75;85.54;94040.59;5012286;28;20120;-66
2022/09/01 05:26:45;;;;;;;15.05;8.90;;;;;;;13.90;85.38;94048.50;5011613;28;20052;-71
2022/09/01 05:29:14;;;;;;;14.40;8.90;;;;;;;14.12;84.45;94043.97;5012446;28;20056;-67
2022/09/01 05:31:44;;;;;;;14.98;9.27;;;;;;;14.09;84.09;94047.63;5011641;28;20050;-69
2022/09/01 05:34:12;;;;;;;15.40;9.63;;;;;;;13.94;84.44;94043.69;5012099;28;20145;-67
2022/09/01 05:36:45;;;;;;;15.35;9.10;;;;;;;14.07;84.48;94041.00;5011302;28;20045;-67
2022/09/01 05:39:12;;;;;;;15.60;9.60;;;;;;;14.08;83.67;94034.25;5012143;28;20046;-66
2022/09/01 05:41:39;;;;;;;14.63;9.07;;;;;;;14.21;83.34;94037.84;5011019;28;20061;-67
2022/09/01 05:44:07;;;;;;;15.30;9.27;;;;;;;13.97;83.88;94040.06;5011754;28;20107;-72
2022/09/01 05:46:36;;;;;;;14.95;9.40;;;;;;;14.05;83.99;94041.44;5009358;28;20064;-71
2022/09/01 05:49:05;;;;;;;14.05;8.95;;;;;;;14.22;82.91;94042.16;5011060;28;20041;-66
2022/09/01 05:51:35;;;;;;;13.68;8.80;;;;;;;14.49;82.08;94035.50;5011161;28;20388;-66
2022/09/01 05:54:13;;;;;;;12.77;8.70;;;;;;;14.72;80.62;94040.75;5011731;28;20041;-66
2022/09/01 05:56:41;;;;;;;13.23;8.02;;;;;;;14.87;79.51;94024.56;5010710;28;20048;-66
2022/09/01 05:59:11;;;;;;;13.07;8.60;;;;;;;14.91;79.94;94041.00;5011840;28;20479;-66
2022/09/01 06:01:54;;;;;;;11.45;7.82;;;;;;;15.00;79.26;94037.59;5009709;28;20041;-67
2022/09/01 06:04:26;;;;;;;12.52;7.80;;;;;;;14.94;79.28;94026.31;5011900;28;20041;-66
2022/09/01 06:06:55;;;;;;;12.33;8.07;;;;;;;14.72;79.46;94038.00;4996835;28;20415;-66
2022/09/01 06:09:38;;;;;;;12.13;8.07;;;;;;;14.80;79.37;94046.09;5009634;28;20053;-65
2022/09/01 06:12:07;;;;;;;12.15;7.80;;;;;;;15.10;78.24;94030.97;5010022;28;20080;-70
2022/09/01 06:14:34;;;;;;;11.45;7.82;;;;;;;15.21;76.51;94034.16;5009508;28;20125;-70
2022/09/01 06:17:02;;;;;;;10.75;7.40;;;;;;;15.46;75.79;94029.84;5010596;28;20044;-68
2022/09/01 06:19:29;;;;;;;11.83;7.53;;;;;;;15.40;74.49;94035.16;5010436;28;20054;-73
2022/09/01 06:22:01;;;;;;;10.95;6.88;;;;;;;15.11;75.75;94032.50;5008801;28;20945;-65
2022/09/01 06:24:28;;;;;;;11.98;7.40;;;;;;;15.83;73.52;94039.31;5011230;28;20414;-64
2022/09/01 06:26:55;;;;;;;12.20;8.05;;;;;;;15.60;73.20;94029.38;5008391;28;20038;-65
2022/09/01 06:29:22;;;;;;;11.32;7.40;;;;;;;15.79;73.38;94035.91;5009444;28;20042;-65
2022/09/01 06:31:51;;;;;;;10.37;7.17;;;;;;;15.91;72.87;94043.38;5010164;28;20415;-66
2022/09/01 06:34:19;;;;;;;10.57;7.65;;;;;;;15.93;71.57;94031.88;5009827;28;20042;-70
2022/09/01 06:36:48;;;;;;;10.85;7.03;;;;;;;16.15;70.81;94031.91;5009153;28;20182;-70
2022/09/01 06:39:21;;;;;;;11.02;7.40;;;;;;;16.15;71.02;94037.44;5011097;28;20104;-64
2022/09/01 06:41:51;;;;;;;11.88;7.45;;;;;;;16.76;69.14;94035.25;5009769;28;20100;-64
2022/09/01 06:44:23;;;;;;;10.60;6.90;;;;;;;17.04;67.88;94047.31;5010937;28;20042;-64
2022/09/01 06:46:51;;;;;;;9.75;6.55;;;;;;;17.57;65.98;94033.34;5010538;28;20050;-70
2022/09/01 06:49:31;;;;;;;9.85;6.85;;;;;;;17.51;66.26;94037.97;5010938;28;20046;-69
2022/09/01 06:52:02;;;;;;;9.82;6.22;;;;;;;17.80;65.10;94039.56;5009995;28;20819;-64
2022/09/01 06:54:32;;;;;;;9.63;6.72;;;;;;;17.48;65.58;94047.19;5009634;28;20355;-66
2022/09/01 06:57:02;;;;;;;11.80;6.57;;;;;;;17.29;66.80;94053.91;5010071;28;20948;-63
2022/09/01 06:59:50;;;;;;;10.63;7.22;;;;;;;16.16;69.72;94050.09;5010155;28;20939;-64
2022/09/01 07:02:38;;;;;;;12.02;6.75;;;;;;;16.66;68.85;94055.84;5009463;28;20050;-68
2022/09/01 07:05:06;;;;;;;9.25;6.53;;;;;;;16.57;68.95;94060.09;5011043;28;20050;-69
2022/09/01 07:07:33;;;;;;;10.55;6.95;;;;;;;16.93;67.53;94052.50;5009729;28;20068;-65
2022/09/01 07:10:21;;;;;;;9.90;6.47;;;;;;;17.24;66.50;94051.72;5010461;28;20406;-65
2022/09/01 07:12:54;;;;;;;9.18;6.50;;;;;;;19.32;61.96;94056.84;5009900;28;20038;-65
2022/09/01 07:15:42;;;;;;;9.32;6.43;;;;;;;19.39;58.66;94055.72;5009727;28;20053;-65
2022/09/01 07:18:30;;;;;;;8.43;6.20;;;;;;;19.05;60.05;94068.78;5010278;28;20034;-64
2022/09/01 07:20:56;;;;;;;8.35;5.78;;;;;;;19.35;58.75;94069.78;5009517;28;20064;-65
2022/09/01 07:23:44;;;;;;;8.57;5.93;;;;;;;18.98;59.48;94064.34;5008880;28;20387;-65
2022/09/01 07:26:34;;;;;;;9.02;6.40;;;;;;;18.95;59.92;94068.81;5009718;28;20046;-65
2022/09/01 07:29:04;;;;;;;8.45;6.18;;;;;;;20.06;56.73;94062.03;5009998;28;20064;-64
2022/09/01 07:31:39;;;;;;;7.60;5.60;;;;;;;22.02;51.81;94074.44;5009927;28;20058;-65
2022/09/01 07:34:27;;;;;;;7.80;5.85;;;;;;;18.07;60.71;94072.22;5008662;28;20053;-64
2022/09/01 07:37:14;;;;;;;11.33;7.50;;;;;;;20.55;54.76;94074.72;5009257;28;20399;-72
2022/09/01 07:40:02;;;;;;;8.63;5.70;;;;;;;21.59;52.26;94072.03;5009198;28;20249;-71
2022/09/01 07:42:56;;;;;;;7.85;5.53;;;;;;;20.98;52.00;94072.50;4997472;28;20046;-65
2022/09/01 07:45:46;;;;;;;6.97;5.10;;;;;;;23.42;46.66;94071.75;5008779;28;20046;-72
2022/09/01 07:48:19;;;;;;;6.63;4.90;;;;;;;25.45;43.08;94064.34;5009738;28;20104;-68
2022/09/01 07:51:06;;;;;;;7.20;5.50;;;;;;;26.53;39.05;94062.19;5009223;28;20049;-66
2022/09/01 07:53:53;;;;;;;7.15;4.93;;;;;;;28.43;36.22;94064.97;5009241;28;20041;-66
2022/09/01 07:56:22;;;;;;;5.85;4.30;;;;;;;29.52;33.70;94060.28;5009769;28;20400;-69
2022/09/01 07:58:50;;;;;;;6.50;4.82;;;;;;;26.86;37.59;94058.47;5008992;28;20064;-68
2022/09/01 08:01:20;;;;;;;7.25;4.95;;;;;;;25.27;41.73;94069.19;5007878;28;20069;-68
2022/09/01 08:03:51;;;;;;;6.50;4.60;;;;;;;28.62;35.81;94062.22;5009645;28;20084;-65
2022/09/01 08:06:20;;;;;;;6.38;5.05;;;;;;;27.87;36.12;94060.66;5009977;28;20093;-64
2022/09/01 08:08:49;;;;;;;7.70;5.18;;;;;;;26.25;38.70;94069.41;5009174;28;20064;-68
2022/09/01 08:11:21;;;;;;;5.78;4.78;;;;;;;26.39;38.67;94069.63;5009703;28;20060;-66
2022/09/01 08:14:08;;;;;;;7.53;5.13;;;;;;;23.61;44.28;94080.56;5008651;28;20049;-72
2022/09/01 08:16:36;;;;;;;6.33;4.87;;;;;;;22.02;47.79;94080.03;5008896;28;20064;-66
2022/09/01 08:19:05;;;;;;;6.15;5.10;;;;;;;21.21;50.74;94075.69;5008473;28;20095;-65
2022/09/01 08:21:42;;;;;;;6.30;4.68;;;;;;;26.50;38.49;94075.22;5008775;28;20050;-66
2022/09/01 08:24:09;;;;;;;6.75;4.90;;;;;;;25.12;40.89;94077.81;5009649;28;20045;-65
2022/09/01 08:26:36;;;;;;;6.10;5.20;;;;;;;25.58;40.07;94077.91;5009168;28;20052;-69
2022/09/01 08:29:03;;;;;;;6.90;4.87;;;;;;;25.47;39.49;94073.03;5009303;28;20045;-71
2022/09/01 08:31:31;;;;;;;6.75;4.85;;;;;;;23.69;43.70;94082.41;5009060;28;20037;-63
2022/09/01 08:33:58;;;;;;;5.88;4.45;;;;;;;24.10;43.09;94073.78;5009039;28;20045;-65
2022/09/01 08:36:25;;;;;;;7.03;4.30;;;;;;;25.68;40.00;94077.13;5011222;28;20030;-65
2022/09/01 08:38:52;;;;;;;5.50;4.60;;;;;;;26.39;38.63;94072.44;5012261;28;20067;-66
2022/09/01 08:41:57;;;;;;;5.80;4.33;;;;;;;27.29;35.96;94066.47;5012938;28;20045;-70
2022/09/01 08:44:36;;;;;;;4.38;3.63;;;;;;;28.51;33.99;94076.44;5003554;28;20045;-66
2022/09/01 08:47:08;;;;;;;6.43;3.92;;;;;;;26.64;36.61;94074.19;5012468;28;20046;-67
2022/09/01 08:49:45;;;;;;;4.70;3.90;;;;;;;29.78;31.86;94073.78;5012632;28;20050;-66
2022/09/01 08:52:35;;;;;;;4.82;3.55;;;;;;;29.41;31.41;94072.50;5013188;28;20042;-66
2022/09/01 08:55:04;;;;;;;4.67;3.47;;;;;;;28.93;32.58;94074.16;5011949;28;20042;-67
2022/09/01 08:57:37;;;;;;;3.97;3.00;;;;;;;27.59;34.07;94080.59;5012625;28;20054;-66
2022/09/01 09:00:10;;;;;;;4.68;3.25;;;;;;;26.63;37.20;94075.47;5012604;28;20042;-70
2022/09/01 09:02:55;;;;;;;5.18;3.33;;;;;;;26.66;35.42;94074.44;5012415;28;20041;-66
2022/09/01 09:05:39;;;;;;;5.47;3.55;;;;;;;24.23;42.47;94078.97;5012612;28;20114;-66
2022/09/01 09:08:24;;;;;;;4.80;3.33;;;;;;;26.66;36.71;94074.44;5011909;28;20417;-66
2022/09/01 09:11:02;;;;;;;4.43;3.60;;;;;;;25.97;37.89;94071.50;5011478;28;20576;-71
2022/09/01 09:13:38;;;;;;;4.00;2.80;;;;;;;28.79;33.05;94072.53;5012572;28;20076;-66
2022/09/01 09:16:27;;;;;;;5.93;3.40;;;;;;;23.80;41.01;94090.16;5011703;28;20044;-65
2022/09/01 09:19:01;;;;;;;4.55;3.20;;;;;;;23.52;42.31;94079.50;5012152;28;20046;-65
2022/09/01 09:21:36;;;;;;;5.70;3.40;;;;;;;24.76;39.78;94081.53;5011845;28;20498;-63
2022/09/01 09:24:17;;;;;;;4.20;3.35;;;;;;;26.46;37.61;94080.34;5012129;28;20034;-65
2022/09/01 09:26:53;;;;;;;4.22;2.90;;;;;;;26.74;36.35;94094.34;5011895;28;20099;-65
2022/09/01 09:29:21;;;;;;;4.72;3.35;;;;;;;24.39;40.32;94093.56;5012204;28;20048;-65
2022/09/01 09:32:01;;;;;;;4.30;3.10;;;;;;;25.69;38.61;94087.09;5010130;28;20045;-65
2022/09/01 09:34:38;;;;;;;5.23;3.40;;;;;;;23.30;42.53;94094.06;5012122;28;20129;-65
2022/09/01 09:37:20;;;;;;;5.25;3.42;;;;;;;21.86;46.23;94092.50;5010853;28;21198;-65
2022/09/01 09:40:18;;;;;;;5.25;3.85;;;;;;;22.08;46.84;94092.81;5011357;28;20046;-65
2022/09/01 09:42:54;;;;;;;5.75;4.20;;;;;;;20.48;50.21;94103.75;5011114;28;20091;-70
2022/09/01 09:45:39;;;;;;;5.85;4.15;;;;;;;20.14;51.35;94096.66;5011785;28;20046;-71
2022/09/01 09:48:29;;;;;;;5.07;3.53;;;;;;;22.40;45.60;94090.22;5010216;28;20644;-66
2022/09/01 09:51:16;;;;;;;4.90;3.50;;;;;;;24.11;41.40;94092.16;5010782;28;20796;-65
2022/09/01 09:53:42;;;;;;;6.43;3.75;;;;;;;23.15;43.43;94089.84;5010933;28;20080;-70
2022/09/01 09:56:18;;;;;;;5.70;3.47;;;;;;;24.30;40.77;94084.09;5011765;28;20041;-66
2022/09/01 09:58:48;;;;;;;4.40;3.30;;;;;;;25.00;40.61;94084.66;5009805;28;20050;-70
2022/09/01 10:01:22;;;;;;;5.03;3.27;;;;;;;25.51;38.01;94071.53;5011953;28;20069;-66
2022/09/01 10:04:02;;;;;;;5.30;3.70;;;;;;;19.46;52.32;94089.56;5010922;28;20394;-65
2022/09/01 10:06:36;;;;;;;6.85;3.85;;;;;;;20.47;51.00;94081.91;5002417;28;20112;-65
2022/09/01 10:09:13;;;;;;;6.32;3.70;;;;;;;23.60;43.09;94085.38;5007269;28;20401;-70
2022/09/01 10:11:42;;;;;;;4.40;3.03;;;;;;;24.55;40.42;94078.13;4997939;28;20053;-67
2022/09/01 10:14:36;;;;;;;4.37;3.27;;;;;;;25.83;38.09;94074.03;5011415;28;20435;-69
2022/09/01 10:17:41;;;;;;;4.47;3.13;;;;;;;24.86;39.56;94066.00;5010676;28;20398;-71
2022/09/01 10:20:17;;;;;;;4.90;3.35;;;;;;;23.10;44.30;94082.91;5010364;28;21692;-69
2022/09/01 10:22:45;;;;;;;5.38;4.05;;;;;;;21.28;47.82;94072.50;5010230;28;20053;-71
2022/09/01 10:25:19;;;;;;;4.93;3.30;;;;;;;23.64;41.12;94063.53;5011126;28;20036;-65
2022/09/01 10:27:50;;;;;;;5.50;3.23;;;;;;;22.04;45.97;94083.13;5010485;28;20111;-65
2022/09/01 10:30:21;;;;;;;4.25;3.35;;;;;;;24.37;40.36;94068.06;5011386;28;20446;-70
2022/09/01 10:32:54;;;;;;;4.38;3.10;;;;;;;23.33;41.71;94061.50;5010758;28;20046;-65
2022/09/01 10:35:28;;;;;;;5.07;3.20;;;;;;;24.72;40.34;94060.09;5011356;28;20681;-65
2022/09/01 10:37:57;;;;;;;4.30;3.00;;;;;;;25.22;39.67;94055.91;5010122;28;20192;-65
2022/09/01 10:40:28;;;;;;;4.37;3.40;;;;;;;25.42;39.07;94052.09;5011063;28;20052;-73
2022/09/01 10:43:19;;;;;;;4.70;3.30;;;;;;;23.21;42.91;94057.81;5009802;28;20201;-66
2022/09/01 10:45:46;;;;;;;4.85;3.65;;;;;;;22.37;44.98;94056.88;5010122;28;20077;-71
2022/09/01 10:48:28;;;;;;;4.95;3.60;;;;;;;22.32;45.86;94053.53;5010910;28;20054;-65
2022/09/01 10:51:13;;;;;;;5.65;3.83;;;;;;;21.61;47.77;94055.56;5009708;28;20616;-66
2022/09/01 10:53:57;;;;;;;5.40;3.70;;;;;;;22.33;46.00;94055.09;5009634;28;20909;-67
2022/09/01 10:56:49;;;;;;;4.97;3.50;;;;;;;25.80;39.11;94055.41;5011000;28;20050;-67
2022/09/01 10:59:20;;;;;;;5.13;3.35;;;;;;;25.34;38.81;94056.69;5009293;28;20863;-68
2022/09/01 11:02:07;;;;;;;4.00;3.00;;;;;;;25.44;38.40;94055.16;5009452;28;20076;-66
2022/09/01 11:04:53;;;;;;;4.40;3.08;;;;;;;25.81;37.66;94051.31;5008360;28;20111;-73
2022/09/01 11:07:20;;;;;;;4.37;3.27;;;;;;;25.28;39.43;94041.88;5000905;28;20045;-66
2022/09/01 11:10:18;;;;;;;4.88;3.72;;;;;;;22.89;43.66;94052.13;5009958;28;20042;-70
2022/09/01 11:13:29;;;;;;;5.25;3.85;;;;;;;21.86;46.68;94058.97;5009480;28;20096;-67
2022/09/01 11:16:26;;;;;;;5.47;3.95;;;;;;;21.14;48.20;94052.50;5009028;28;21638;-65
2022/09/01 11:19:27;;;;;;;5.13;3.75;;;;;;;21.01;48.74;94052.03;5009486;28;20799;-70
2022/09/01 11:22:07;;;;;;;6.10;3.87;;;;;;;20.89;48.22;94048.25;5009895;28;20063;-67
2022/09/01 11:24:37;;;;;;;5.03;3.80;;;;;;;20.52;49.17;94058.94;5010132;28;20048;-65
2022/09/01 11:27:08;;;;;;;4.90;3.38;;;;;;;20.35;49.64;94053.81;5009989;28;20037;-69
2022/09/01 11:29:55;;;;;;;5.05;3.70;;;;;;;20.93;47.91;94056.44;5009800;28;20048;-66
2022/09/01 11:32:31;;;;;;;5.03;3.85;;;;;;;20.59;48.63;94049.47;5010000;28;20042;-68
2022/09/01 11:35:03;;;;;;;6.50;3.50;;;;;;;21.03;48.29;94057.13;5008864;28;20849;-66
2022/09/01 11:37:32;;;;;;;6.47;4.30;;;;;;;18.74;53.50;94064.94;5009810;28;20111;-69
2022/09/01 11:40:02;;;;;;;7.32;3.90;;;;;;;19.79;52.08;94054.63;5009761;28;20065;-71
2022/09/01 11:42:38;;;;;;;5.28;4.00;;;;;;;19.75;53.03;94063.91;5009947;28;20056;-66
2022/09/01 11:45:20;;;;;;;5.88;4.38;;;;;;;19.44;53.74;94055.84;5008873;28;20438;-71
2022/09/01 11:47:54;;;;;;;5.33;4.30;;;;;;;19.34;53.74;94066.25;5009617;28;20056;-65
2022/09/01 11:50:26;;;;;;;5.18;4.03;;;;;;;19.55;53.72;94061.66;5009829;28;20038;-71
2022/09/01 11:52:59;;;;;;;5.07;3.70;;;;;;;20.14;52.17;94060.44;5008857;28;20045;-71
2022/09/01 11:55:42;;;;;;;5.50;3.70;;;;;;;19.80;51.59;94058.94;5009601;28;20057;-63
2022/09/01 11:58:11;;;;;;;5.93;3.80;;;;;;;20.75;49.81;94055.38;5009383;28;20068;-65
2022/09/01 12:00:43;;;;;;;5.60;4.10;;;;;;;20.07;51.19;94053.22;5009290;28;20401;-68